createdAt,value
2023-01-03T00:00:38.653Z,10.19
2023-01-03T00:01:38.635Z,10.18
2023-01-03T00:02:38.668Z,10.17
2023-01-03T00:03:38.579Z,10.18
2023-01-03T00:04:38.592Z,10.17
2023-01-03T00:05:38.541Z,10.18
2023-01-03T00:06:38.520Z,10.18
2023-01-03T00:07:38.490Z,10.18
2023-01-03T00:08:38.539Z,10.17
2023-01-03T00:09:38.524Z,10.18
2023-01-03T00:10:38.431Z,10.17
2023-01-03T00:11:38.436Z,10.17
2023-01-03T00:12:38.521Z,10.14
2023-01-03T00:13:38.420Z,10.17
2023-01-03T00:14:38.401Z,10.15
2023-01-03T00:15:38.674Z,10.18
2023-01-03T00:16:38.418Z,10.15
2023-01-03T00:17:38.432Z,10.15
2023-01-03T00:18:38.434Z,10.15
2023-01-03T00:19:38.359Z,10.14
2023-01-03T00:20:38.338Z,10.10
2023-01-03T00:21:38.320Z,10.12
2023-01-03T00:22:38.373Z,10.10
2023-01-03T00:23:38.289Z,10.09
2023-01-03T00:24:38.274Z,10.07
2023-01-03T00:25:38.305Z,10.04
2023-01-03T00:26:38.309Z,10.03
2023-01-03T00:27:38.229Z,10.03
2023-01-03T00:28:38.240Z,10.03
2023-01-03T00:29:38.219Z,10.01
2023-01-03T00:30:38.235Z,10.00
2023-01-03T00:31:38.162Z,10.01
2023-01-03T00:32:38.348Z,10.01
2023-01-03T00:33:38.186Z,9.99
2023-01-03T00:34:38.126Z,10.00
2023-01-03T00:35:38.160Z,10.01
2023-01-03T00:36:38.097Z,10.00
2023-01-03T00:37:38.109Z,10.01
2023-01-03T00:38:38.176Z,10.00
2023-01-03T00:39:38.144Z,10.01
2023-01-03T00:40:38.042Z,9.99
2023-01-03T00:41:38.046Z,9.99
2023-01-03T00:42:38.079Z,9.99
2023-01-03T00:43:38.037Z,9.99
2023-01-03T00:44:38.000Z,10.00
2023-01-03T00:45:38.161Z,9.99
2023-01-03T00:46:38.032Z,9.97
2023-01-03T00:47:37.989Z,9.99
2023-01-03T00:48:37.961Z,9.96
2023-01-03T00:49:38.006Z,9.94
2023-01-03T00:50:37.967Z,9.94
2023-01-03T00:51:38.016Z,9.93
2023-01-03T00:52:37.913Z,9.93
2023-01-03T00:53:37.868Z,9.88
2023-01-03T00:54:37.847Z,9.88
2023-01-03T00:55:37.854Z,9.86
2023-01-03T00:56:37.845Z,9.86
2023-01-03T00:57:37.837Z,9.86
2023-01-03T00:58:37.828Z,9.85
2023-01-03T00:59:37.796Z,9.86
2023-01-03T01:00:37.774Z,9.86
2023-01-03T01:01:45.839Z,9.86
2023-01-03T01:02:38.995Z,9.86
2023-01-03T01:03:37.761Z,9.86
2023-01-03T01:04:37.745Z,9.88
2023-01-03T01:05:37.705Z,9.88
2023-01-03T01:06:37.694Z,9.88
2023-01-03T01:07:37.717Z,9.88
2023-01-03T01:08:37.707Z,9.88
2023-01-03T01:09:37.655Z,9.89
2023-01-03T01:10:37.638Z,9.88
2023-01-03T01:11:37.636Z,9.86
2023-01-03T01:12:37.606Z,9.89
2023-01-03T01:13:37.631Z,9.88
2023-01-03T01:14:37.588Z,9.88
2023-01-03T01:15:37.584Z,9.89
2023-01-03T01:16:37.563Z,9.89
2023-01-03T01:17:37.568Z,9.88
2023-01-03T01:18:37.536Z,9.89
2023-01-03T01:19:37.560Z,9.86
2023-01-03T01:20:37.526Z,9.86
2023-01-03T01:21:37.508Z,9.83
2023-01-03T01:22:37.518Z,9.85
2023-01-03T01:23:37.506Z,9.82
2023-01-03T01:24:37.449Z,9.82
2023-01-03T01:25:37.526Z,9.83
2023-01-03T01:26:37.483Z,9.82
2023-01-03T01:27:37.427Z,9.82
2023-01-03T01:28:37.426Z,9.82
2023-01-03T01:29:37.438Z,9.82
2023-01-03T01:30:37.385Z,9.82
2023-01-03T01:31:37.460Z,9.81
2023-01-03T01:32:37.394Z,9.79
2023-01-03T01:33:37.382Z,9.81
2023-01-03T01:34:37.360Z,9.76
2023-01-03T01:35:37.424Z,9.76
2023-01-03T01:36:37.329Z,9.75
2023-01-03T01:37:37.324Z,9.73
2023-01-03T01:38:37.307Z,9.71
2023-01-03T01:39:37.245Z,9.71
2023-01-03T01:40:37.264Z,9.68
2023-01-03T01:41:37.267Z,9.70
2023-01-03T01:42:37.234Z,9.68
2023-01-03T01:43:37.239Z,9.66
2023-01-03T01:44:37.276Z,9.64
2023-01-03T01:45:37.185Z,9.66
2023-01-03T01:46:37.249Z,9.64
2023-01-03T01:47:37.273Z,9.63
2023-01-03T01:48:37.183Z,9.61
2023-01-03T01:49:37.204Z,9.61
2023-01-03T01:50:37.166Z,9.60
2023-01-03T01:51:37.084Z,9.60
2023-01-03T01:52:37.094Z,9.61
2023-01-03T01:53:37.107Z,9.61
2023-01-03T01:54:37.065Z,9.60
2023-01-03T01:55:37.102Z,9.58
2023-01-03T01:56:37.081Z,9.57
2023-01-03T01:57:37.019Z,9.56
2023-01-03T01:58:37.016Z,9.53
2023-01-03T01:59:37.635Z,9.53
2023-01-03T02:00:37.036Z,9.50
2023-01-03T02:01:40.570Z,9.49
2023-01-03T02:02:37.122Z,9.46
2023-01-03T02:03:37.151Z,9.45
2023-01-03T02:04:36.961Z,9.45
2023-01-03T02:05:36.906Z,9.46
2023-01-03T02:06:36.936Z,9.45
2023-01-03T02:08:34.323Z,9.45
2023-01-03T02:08:38.701Z,9.40
2023-01-03T02:09:37.034Z,9.38
2023-01-03T02:10:36.914Z,9.35
2023-01-03T02:11:36.875Z,9.32
2023-01-03T02:12:36.895Z,9.30
2023-01-03T02:13:36.863Z,9.28
2023-01-03T02:14:36.977Z,9.27
2023-01-03T02:15:36.836Z,9.25
2023-01-03T02:16:36.979Z,9.24
2023-01-03T02:17:36.777Z,9.23
2023-01-03T02:18:36.791Z,9.24
2023-01-03T02:19:36.756Z,9.23
2023-01-03T02:20:36.780Z,9.21
2023-01-03T02:21:36.693Z,9.18
2023-01-03T02:22:36.724Z,9.18
2023-01-03T02:23:36.715Z,9.16
2023-01-03T02:24:36.669Z,9.15
2023-01-03T02:25:36.677Z,9.13
2023-01-03T02:26:36.711Z,9.10
2023-01-03T02:27:36.668Z,9.10
2023-01-03T02:28:36.619Z,9.06
2023-01-03T02:29:46.407Z,9.05
2023-01-03T02:30:36.582Z,9.04
2023-01-03T02:31:36.653Z,9.04
2023-01-03T02:32:36.561Z,9.02
2023-01-03T02:33:36.562Z,9.04
2023-01-03T02:34:36.527Z,9.09
2023-01-03T02:35:36.522Z,9.12
2023-01-03T02:36:36.684Z,9.12
2023-01-03T02:37:36.529Z,9.13
2023-01-03T02:38:36.521Z,9.13
2023-01-03T02:39:40.831Z,9.12
2023-01-03T02:40:36.455Z,9.10
2023-01-03T02:41:36.434Z,9.09
2023-01-03T02:42:36.571Z,9.09
2023-01-03T02:43:36.434Z,9.09
2023-01-03T02:44:36.414Z,9.12
2023-01-03T02:45:36.405Z,9.13
2023-01-03T02:46:36.408Z,9.13
2023-01-03T02:47:36.342Z,9.12
2023-01-03T02:48:36.492Z,9.12
2023-01-03T02:49:36.464Z,9.12
2023-01-03T02:50:36.333Z,9.09
2023-01-03T02:51:36.312Z,9.06
2023-01-03T02:52:38.912Z,9.05
2023-01-03T02:53:36.353Z,9.05
2023-01-03T02:54:36.254Z,9.04
2023-01-03T02:55:36.290Z,9.01
2023-01-03T02:56:36.342Z,9.01
2023-01-03T02:57:36.201Z,9.02
2023-01-03T02:58:36.437Z,9.02
2023-01-03T02:59:36.219Z,9.04
2023-01-03T03:00:36.191Z,9.05
2023-01-03T03:01:36.328Z,9.05
2023-01-03T03:02:36.351Z,9.05
2023-01-03T03:03:36.170Z,9.05
2023-01-03T03:04:36.145Z,9.05
2023-01-03T03:05:36.322Z,9.09
2023-01-03T03:06:36.092Z,9.09
2023-01-03T03:07:36.152Z,9.06
2023-01-03T03:08:36.068Z,9.09
2023-01-03T03:09:43.080Z,9.09
2023-01-03T03:10:36.066Z,9.12
2023-01-03T03:11:36.093Z,9.12
2023-01-03T03:12:36.038Z,9.12
2023-01-03T03:13:36.019Z,9.12
2023-01-03T03:14:36.008Z,9.13
2023-01-03T03:15:36.013Z,9.12
2023-01-03T03:16:36.047Z,9.12
2023-01-03T03:17:36.011Z,9.13
2023-01-03T03:18:36.003Z,9.15
2023-01-03T03:19:35.979Z,9.16
2023-01-03T03:20:35.952Z,9.13
2023-01-03T03:21:35.940Z,9.12
2023-01-03T03:22:35.998Z,9.10
2023-01-03T03:23:35.976Z,9.09
2023-01-03T03:24:35.873Z,9.06
2023-01-03T03:25:35.867Z,9.09
2023-01-03T03:26:35.871Z,9.10
2023-01-03T03:27:35.854Z,9.12
2023-01-03T03:28:35.904Z,9.13
2023-01-03T03:29:35.812Z,9.10
2023-01-03T03:30:35.802Z,9.06
2023-01-03T03:31:35.864Z,9.06
2023-01-03T03:33:35.558Z,9.05
2023-01-03T03:33:43.500Z,9.04
2023-01-03T03:34:53.557Z,9.01
2023-01-03T03:35:35.812Z,8.99
2023-01-03T03:36:35.771Z,8.96
2023-01-03T03:38:45.132Z,8.91
2023-01-03T03:39:45.081Z,8.88
2023-01-03T03:40:45.192Z,8.84
2023-01-03T03:41:45.118Z,8.79
2023-01-03T03:42:45.011Z,8.79
2023-01-03T03:43:45.012Z,8.81
2023-01-03T03:44:45.127Z,8.79
2023-01-03T03:45:44.982Z,8.79
2023-01-03T03:46:50.637Z,8.73
2023-01-03T03:47:45.962Z,8.73
2023-01-03T03:49:00.303Z,8.73
2023-01-03T03:49:44.910Z,8.69
2023-01-03T03:50:44.881Z,8.66
2023-01-03T03:51:44.949Z,8.62
2023-01-03T03:52:44.912Z,8.54
2023-01-03T03:53:44.837Z,8.50
2023-01-03T03:54:44.920Z,8.44
2023-01-03T03:55:44.850Z,8.36
2023-01-03T03:56:44.862Z,8.32
2023-01-03T03:57:44.928Z,8.29
2023-01-03T03:58:44.833Z,8.26
2023-01-03T03:59:44.779Z,8.25
2023-01-03T04:00:44.790Z,8.22
2023-01-03T04:01:44.871Z,8.21
2023-01-03T04:02:44.847Z,8.21
2023-01-03T04:03:44.830Z,8.18
2023-01-03T04:04:44.766Z,8.18
2023-01-03T04:05:44.681Z,8.17
2023-01-03T04:06:44.682Z,8.17
2023-01-03T04:07:44.725Z,8.15
2023-01-03T04:08:45.688Z,8.11
2023-01-03T04:09:44.642Z,8.12
2023-01-03T04:10:44.793Z,8.11
2023-01-03T04:11:44.618Z,8.07
2023-01-03T04:12:44.618Z,8.03
2023-01-03T04:13:44.696Z,8.00
2023-01-03T04:14:44.576Z,7.97
2023-01-03T04:15:44.570Z,7.94
2023-01-03T04:16:44.655Z,7.94
2023-01-03T04:17:44.530Z,7.92
2023-01-03T04:18:44.586Z,7.89
2023-01-03T04:19:44.507Z,7.82
2023-01-03T04:20:44.487Z,7.79
2023-01-03T04:21:44.523Z,7.78
2023-01-03T04:22:44.505Z,7.77
2023-01-03T04:23:44.668Z,7.74
2023-01-03T04:24:45.449Z,7.75
2023-01-03T04:25:44.430Z,7.77
2023-01-03T04:26:44.548Z,7.75
2023-01-03T04:27:44.402Z,7.77
2023-01-03T04:28:44.555Z,7.74
2023-01-03T04:29:44.584Z,7.74
2023-01-03T04:30:44.351Z,7.71
2023-01-03T04:31:44.470Z,7.66
2023-01-03T04:32:44.546Z,7.67
2023-01-03T04:33:44.347Z,7.66
2023-01-03T04:34:44.348Z,7.60
2023-01-03T04:35:44.368Z,7.58
2023-01-03T04:36:44.279Z,7.52
2023-01-03T04:37:44.309Z,7.47
2023-01-03T04:38:44.297Z,7.44
2023-01-03T04:39:44.483Z,7.42
2023-01-03T04:40:44.210Z,7.41
2023-01-03T04:41:44.206Z,7.40
2023-01-03T04:42:44.199Z,7.38
2023-01-03T04:43:44.216Z,7.32
2023-01-03T04:44:44.199Z,7.31
2023-01-03T04:45:44.215Z,7.29
2023-01-03T04:46:49.115Z,7.22
2023-01-03T04:47:45.149Z,7.19
2023-01-03T04:48:44.094Z,7.17
2023-01-03T04:49:44.127Z,7.15
2023-01-03T04:50:44.106Z,7.12
2023-01-03T04:51:44.064Z,7.12
2023-01-03T04:52:44.099Z,7.05
2023-01-03T04:53:44.062Z,7.05
2023-01-03T04:54:44.065Z,7.02
2023-01-03T04:55:44.091Z,6.99
2023-01-03T04:56:44.095Z,7.02
2023-01-03T04:57:43.995Z,7.04
2023-01-03T04:58:44.100Z,7.08
2023-01-03T04:59:43.957Z,7.09
2023-01-03T05:00:43.984Z,7.13
2023-01-03T05:01:44.267Z,7.12
2023-01-03T05:02:43.937Z,7.13
2023-01-03T05:03:44.012Z,7.16
2023-01-03T05:04:44.208Z,7.17
2023-01-03T05:05:43.885Z,7.19
2023-01-03T05:06:44.017Z,7.23
2023-01-03T05:07:43.945Z,7.19
2023-01-03T05:08:43.895Z,7.17
2023-01-03T05:09:43.849Z,7.19
2023-01-03T05:10:43.825Z,7.15
2023-01-03T05:11:43.795Z,7.09
2023-01-03T05:12:43.794Z,7.08
2023-01-03T05:13:43.764Z,7.04
2023-01-03T05:14:43.791Z,6.99
2023-01-03T05:15:43.765Z,6.98
2023-01-03T05:16:43.824Z,7.01
2023-01-03T05:17:43.726Z,7.08
2023-01-03T05:18:43.706Z,7.13
2023-01-03T05:19:45.504Z,7.17
2023-01-03T05:20:43.755Z,7.17
2023-01-03T05:21:43.699Z,7.19
2023-01-03T05:22:43.697Z,7.16
2023-01-03T05:23:43.664Z,7.15
2023-01-03T05:24:43.656Z,7.16
2023-01-03T05:25:43.599Z,7.15
2023-01-03T05:26:43.672Z,7.15
2023-01-03T05:27:43.648Z,7.15
2023-01-03T05:28:43.624Z,7.16
2023-01-03T05:29:43.561Z,7.15
2023-01-03T05:30:43.726Z,7.09
2023-01-03T05:31:43.584Z,7.07
2023-01-03T05:32:43.562Z,7.08
2023-01-03T05:33:43.668Z,7.08
2023-01-03T05:34:43.517Z,7.07
2023-01-03T05:35:43.473Z,7.08
2023-01-03T05:36:43.544Z,7.07
2023-01-03T05:37:43.490Z,7.05
2023-01-03T05:38:43.476Z,7.05
2023-01-03T05:39:43.422Z,7.04
2023-01-03T05:40:43.516Z,7.02
2023-01-03T05:41:43.440Z,6.99
2023-01-03T05:42:43.381Z,6.99
2023-01-03T05:43:43.426Z,6.98
2023-01-03T05:44:43.432Z,6.98
2023-01-03T05:45:43.466Z,6.98
2023-01-03T05:46:43.311Z,6.97
2023-01-03T05:47:43.393Z,6.91
2023-01-03T05:48:43.322Z,6.89
2023-01-03T05:49:43.303Z,6.86
2023-01-03T05:50:43.425Z,6.83
2023-01-03T05:51:43.269Z,6.80
2023-01-03T05:52:43.247Z,6.80
2023-01-03T05:53:43.368Z,6.77
2023-01-03T05:54:43.243Z,6.79
2023-01-03T05:55:43.240Z,6.79
2023-01-03T05:56:43.340Z,6.77
2023-01-03T05:57:43.168Z,6.73
2023-01-03T05:58:43.225Z,6.73
2023-01-03T05:59:43.338Z,6.77
2023-01-03T06:00:43.217Z,6.73
2023-01-03T06:01:43.252Z,6.73
2023-01-03T06:02:43.417Z,6.72
2023-01-03T06:03:43.106Z,6.71
2023-01-03T06:04:43.149Z,6.68
2023-01-03T06:05:49.607Z,6.65
2023-01-03T06:06:44.134Z,6.63
2023-01-03T06:07:50.167Z,6.62
2023-01-03T06:08:43.019Z,6.62
2023-01-03T06:10:52.923Z,6.59
2023-01-03T06:11:52.952Z,6.56
2023-01-03T06:12:52.861Z,6.56
2023-01-03T06:13:52.999Z,6.61
2023-01-03T06:14:52.854Z,6.63
2023-01-03T06:15:52.828Z,6.63
2023-01-03T06:16:52.967Z,6.61
2023-01-03T06:17:52.854Z,6.61
2023-01-03T06:18:52.802Z,6.56
2023-01-03T06:19:52.910Z,6.54
2023-01-03T06:20:52.789Z,6.51
2023-01-03T06:21:52.762Z,6.48
2023-01-03T06:22:52.816Z,6.50
2023-01-03T06:23:52.752Z,6.50
2023-01-03T06:24:52.712Z,6.46
2023-01-03T06:25:52.961Z,6.46
2023-01-03T06:26:52.697Z,6.46
2023-01-03T06:27:52.669Z,6.43
2023-01-03T06:28:52.718Z,6.41
2023-01-03T06:29:52.779Z,6.41
2023-01-03T06:30:52.662Z,6.40
2023-01-03T06:31:52.628Z,6.44
2023-01-03T06:32:52.625Z,6.46
2023-01-03T06:33:52.605Z,6.48
2023-01-03T06:34:52.658Z,6.51
2023-01-03T06:35:52.573Z,6.50
2023-01-03T06:36:52.584Z,6.50
2023-01-03T06:37:52.740Z,6.50
2023-01-03T06:38:52.558Z,6.50
2023-01-03T06:39:52.530Z,6.51
2023-01-03T06:40:52.490Z,6.50
2023-01-03T06:41:52.531Z,6.47
2023-01-03T06:42:52.698Z,6.46
2023-01-03T06:43:52.482Z,6.47
2023-01-03T06:44:52.468Z,6.47
2023-01-03T06:45:52.490Z,6.47
2023-01-03T06:46:52.617Z,6.47
2023-01-03T06:47:52.420Z,6.46
2023-01-03T06:48:52.444Z,6.47
2023-01-03T06:49:52.390Z,6.47
2023-01-03T06:50:52.401Z,6.50
2023-01-03T06:51:52.361Z,6.50
2023-01-03T06:52:52.418Z,6.48
2023-01-03T06:53:52.429Z,6.46
2023-01-03T06:54:52.324Z,6.44
2023-01-03T06:55:56.740Z,6.44
2023-01-03T06:56:53.308Z,6.43
2023-01-03T06:57:52.287Z,6.38
2023-01-03T06:58:52.301Z,6.38
2023-01-03T06:59:52.297Z,6.36
2023-01-03T07:00:52.250Z,6.38
2023-01-03T07:01:52.436Z,6.36
2023-01-03T07:02:52.507Z,6.36
2023-01-03T07:03:52.283Z,6.32
2023-01-03T07:04:52.513Z,6.32
2023-01-03T07:06:01.666Z,6.30
2023-01-03T07:06:53.232Z,6.29
2023-01-03T07:07:52.159Z,6.26
2023-01-03T07:08:52.137Z,6.25
2023-01-03T07:09:52.207Z,6.22
2023-01-03T07:10:52.196Z,6.22
2023-01-03T07:11:52.177Z,6.22
2023-01-03T07:12:52.221Z,6.21
2023-01-03T07:13:52.082Z,6.21
2023-01-03T07:14:52.114Z,6.19
2023-01-03T07:15:52.191Z,6.21
2023-01-03T07:16:52.144Z,6.21
2023-01-03T07:17:52.026Z,6.21
2023-01-03T07:18:55.271Z,6.21
2023-01-03T07:19:52.007Z,6.21
2023-01-03T07:20:51.983Z,6.19
2023-01-03T07:21:52.053Z,6.18
2023-01-03T07:22:52.050Z,6.19
2023-01-03T07:23:51.956Z,6.21
2023-01-03T07:24:51.999Z,6.19
2023-01-03T07:25:51.943Z,6.21
2023-01-03T07:26:51.878Z,6.25
2023-01-03T07:27:51.886Z,6.28
2023-01-03T07:28:53.447Z,6.29
2023-01-03T07:29:51.887Z,6.30
2023-01-03T07:30:51.921Z,6.32
2023-01-03T07:31:51.842Z,6.32
2023-01-03T07:32:51.847Z,6.33
2023-01-03T07:33:51.806Z,6.35
2023-01-03T07:34:51.837Z,6.35
2023-01-03T07:35:51.766Z,6.35
2023-01-03T07:36:51.755Z,6.36
2023-01-03T07:37:51.735Z,6.40
2023-01-03T07:38:51.802Z,6.41
2023-01-03T07:39:51.763Z,6.43
2023-01-03T07:40:51.748Z,6.43
2023-01-03T07:41:51.730Z,6.44
2023-01-03T07:42:51.683Z,6.46
2023-01-03T07:43:51.681Z,6.48
2023-01-03T07:44:51.728Z,6.46
2023-01-03T07:45:51.736Z,6.46
2023-01-03T07:46:51.811Z,6.46
2023-01-03T07:47:51.614Z,6.47
2023-01-03T07:48:51.666Z,6.48
2023-01-03T07:49:51.621Z,6.48
2023-01-03T07:50:51.576Z,6.47
2023-01-03T07:51:51.580Z,6.47
2023-01-03T07:52:51.627Z,6.50
2023-01-03T07:53:51.544Z,6.48
2023-01-03T07:54:51.592Z,6.48
2023-01-03T07:55:51.523Z,6.51
2023-01-03T07:56:51.478Z,6.54
2023-01-03T07:57:51.516Z,6.54
2023-01-03T07:58:51.673Z,6.54
2023-01-03T07:59:51.472Z,6.59
2023-01-03T08:00:51.484Z,6.59
2023-01-03T08:01:54.342Z,6.61
2023-01-03T08:02:51.608Z,6.62
2023-01-03T08:03:51.496Z,6.66
2023-01-03T08:04:51.618Z,6.66
2023-01-03T08:05:51.453Z,6.68
2023-01-03T08:06:51.403Z,6.68
2023-01-03T08:07:51.619Z,6.69
2023-01-03T08:08:51.331Z,6.69
2023-01-03T08:09:51.390Z,6.72
2023-01-03T08:10:51.472Z,6.76
2023-01-03T08:11:51.374Z,6.77
2023-01-03T08:12:51.318Z,6.79
2023-01-03T08:13:51.291Z,6.79
2023-01-03T08:14:51.279Z,6.80
2023-01-03T08:15:51.285Z,6.80
2023-01-03T08:16:51.304Z,6.86
2023-01-03T08:17:51.336Z,6.87
2023-01-03T08:18:51.230Z,6.87
2023-01-03T08:19:51.219Z,6.91
2023-01-03T08:20:51.280Z,6.91
2023-01-03T08:21:51.291Z,6.95
2023-01-03T08:22:51.161Z,6.95
2023-01-03T08:23:51.238Z,6.95
2023-01-03T08:24:57.650Z,6.97
2023-01-03T08:25:51.162Z,6.95
2023-01-03T08:26:51.154Z,6.94
2023-01-03T08:27:51.204Z,6.94
2023-01-03T08:28:51.184Z,6.95
2023-01-03T08:29:51.093Z,6.97
2023-01-03T08:30:51.063Z,6.97
2023-01-03T08:31:51.126Z,6.97
2023-01-03T08:32:51.076Z,6.99
2023-01-03T08:34:22.298Z,7.02
2023-01-03T08:34:51.997Z,7.02
2023-01-03T08:35:50.966Z,7.04
2023-01-03T08:36:51.014Z,7.02
2023-01-03T08:37:51.071Z,7.04
2023-01-03T08:38:50.935Z,7.02
2023-01-03T08:39:51.034Z,7.02
2023-01-03T08:40:50.964Z,7.04
2023-01-03T08:41:50.929Z,7.05
2023-01-03T08:42:50.995Z,7.04
2023-01-03T08:43:50.910Z,7.04
2023-01-03T08:44:50.862Z,7.02
2023-01-03T08:46:04.401Z,7.02
2023-01-03T08:46:51.008Z,6.99
2023-01-03T08:47:50.789Z,7.01
2023-01-03T08:48:50.810Z,7.02
2023-01-03T08:50:13.649Z,7.02
2023-01-03T08:50:50.900Z,7.01
2023-01-03T08:51:50.790Z,7.04
2023-01-03T08:52:50.795Z,7.05
2023-01-03T08:53:54.207Z,7.07
2023-01-03T08:54:50.857Z,7.09
2023-01-03T08:55:50.779Z,7.12
2023-01-03T08:56:50.725Z,7.13
2023-01-03T08:57:50.761Z,7.13
2023-01-03T08:58:50.707Z,7.13
2023-01-03T08:59:50.676Z,7.13
2023-01-03T09:00:50.654Z,7.17
2023-01-03T09:01:50.920Z,7.19
2023-01-03T09:02:50.844Z,7.20
2023-01-03T09:03:50.981Z,7.22
2023-01-03T09:04:50.616Z,7.22
2023-01-03T09:05:50.621Z,7.22
2023-01-03T09:07:04.003Z,7.22
2023-01-03T09:07:51.611Z,7.20
2023-01-03T09:08:50.517Z,7.19
2023-01-03T09:09:50.639Z,7.19
2023-01-03T09:10:50.632Z,7.19
2023-01-03T09:11:50.472Z,7.19
2023-01-03T09:12:50.628Z,7.17
2023-01-03T09:13:50.508Z,7.13
2023-01-03T09:14:50.454Z,7.12
2023-01-03T09:15:50.497Z,7.15
2023-01-03T09:16:50.707Z,7.15
2023-01-03T09:17:50.395Z,7.12
2023-01-03T09:18:50.413Z,7.08
2023-01-03T09:19:50.513Z,7.08
2023-01-03T09:20:50.369Z,7.08
2023-01-03T09:21:50.362Z,7.07
2023-01-03T09:22:50.455Z,7.07
2023-01-03T09:23:50.407Z,7.07
2023-01-03T09:24:50.344Z,7.08
2023-01-03T09:25:50.496Z,7.07
2023-01-03T09:26:54.418Z,7.05
2023-01-03T09:27:50.284Z,7.04
2023-01-03T09:29:21.875Z,7.02
2023-01-03T09:29:51.264Z,6.99
2023-01-03T09:30:50.245Z,7.01
2023-01-03T09:31:51.448Z,6.98
2023-01-03T09:33:28.333Z,6.98
2023-01-03T09:33:51.206Z,6.94
2023-01-03T09:34:50.226Z,6.94
2023-01-03T09:35:50.166Z,6.97
2023-01-03T09:36:50.240Z,6.95
2023-01-03T09:37:50.157Z,6.94
2023-01-03T09:38:50.155Z,6.94
2023-01-03T09:39:50.236Z,6.91
2023-01-03T09:40:50.190Z,6.90
2023-01-03T09:41:50.121Z,6.91
2023-01-03T09:42:57.249Z,6.90
2023-01-03T09:43:51.083Z,6.87
2023-01-03T09:44:50.043Z,6.89
2023-01-03T09:45:50.051Z,6.89
2023-01-03T09:46:50.177Z,6.87
2023-01-03T09:47:49.995Z,6.86
2023-01-03T09:48:49.994Z,6.84
2023-01-03T09:50:18.827Z,6.83
2023-01-03T09:51:17.213Z,6.79
2023-01-03T09:51:51.036Z,6.81
2023-01-03T09:52:50.146Z,6.81
2023-01-03T09:53:49.934Z,6.79
2023-01-03T09:54:49.915Z,6.80
2023-01-03T09:56:29.102Z,6.79
2023-01-03T09:56:49.954Z,6.72
2023-01-03T09:57:50.016Z,6.77
2023-01-03T09:58:58.324Z,6.77
2023-01-03T09:59:49.847Z,6.77
2023-01-03T10:00:49.866Z,6.76
2023-01-03T10:01:50.369Z,6.77
2023-01-03T10:02:50.105Z,6.73
2023-01-03T10:03:51.888Z,6.76
2023-01-03T10:04:49.771Z,6.77
2023-01-03T10:05:49.941Z,6.79
2023-01-03T10:06:49.754Z,6.80
2023-01-03T10:07:49.953Z,6.81
2023-01-03T10:08:49.812Z,6.84
2023-01-03T10:09:49.731Z,6.86
2023-01-03T10:10:49.915Z,6.87
2023-01-03T10:11:49.662Z,6.87
2023-01-03T10:12:49.685Z,6.89
2023-01-03T10:13:49.645Z,6.89
2023-01-03T10:14:49.851Z,6.91
2023-01-03T10:15:49.684Z,6.91
2023-01-03T10:16:49.708Z,6.94
2023-01-03T10:17:49.656Z,6.94
2023-01-03T10:18:49.619Z,6.97
2023-01-03T10:19:49.579Z,6.97
2023-01-03T10:20:49.704Z,6.98
2023-01-03T10:21:49.530Z,7.01
2023-01-03T10:22:49.519Z,7.04
2023-01-03T10:23:49.697Z,7.08
2023-01-03T10:24:49.567Z,7.15
2023-01-03T10:25:49.502Z,7.22
2023-01-03T10:26:51.600Z,7.31
2023-01-03T10:27:49.484Z,7.41
2023-01-03T10:28:49.467Z,7.49
2023-01-03T10:29:49.480Z,7.58
2023-01-03T10:30:56.590Z,7.67
2023-01-03T10:31:50.603Z,7.79
2023-01-03T10:32:49.624Z,7.87
2023-01-03T10:33:49.399Z,7.94
2023-01-03T10:34:49.359Z,8.02
2023-01-03T10:35:49.591Z,8.08
2023-01-03T10:36:49.339Z,8.08
2023-01-03T10:37:49.380Z,8.07
2023-01-03T10:38:53.314Z,8.07
2023-01-03T10:39:49.327Z,8.03
2023-01-03T10:40:49.373Z,8.04
2023-01-03T10:41:49.365Z,8.04
2023-01-03T10:42:49.291Z,8.03
2023-01-03T10:43:49.607Z,8.07
2023-01-03T10:44:49.423Z,8.08
2023-01-03T10:45:49.885Z,8.11
2023-01-03T10:46:49.304Z,8.11
2023-01-03T10:47:49.318Z,8.10
2023-01-03T10:49:50.230Z,8.11
2023-01-03T10:50:49.405Z,8.11
2023-01-03T10:52:59.151Z,8.08
2023-01-03T10:54:10.794Z,8.12
2023-01-03T10:55:00.119Z,8.15
2023-01-03T10:56:02.891Z,8.18
2023-01-03T10:56:58.989Z,8.25
2023-01-03T10:57:59.037Z,8.28
2023-01-03T10:58:59.112Z,8.32
2023-01-03T10:59:59.011Z,8.35
2023-01-03T11:00:59.051Z,8.40
2023-01-03T11:01:59.302Z,8.45
2023-01-03T11:02:59.174Z,8.53
2023-01-03T11:03:59.067Z,8.58
2023-01-03T11:04:58.942Z,8.66
2023-01-03T11:05:58.907Z,8.69
2023-01-03T11:06:58.853Z,8.73
2023-01-03T11:07:58.890Z,8.76
2023-01-03T11:08:58.889Z,8.79
2023-01-03T11:09:58.899Z,8.79
2023-01-03T11:10:58.817Z,8.83
2023-01-03T11:11:58.859Z,8.88
2023-01-03T11:12:58.992Z,8.91
2023-01-03T11:13:58.817Z,8.94
2023-01-03T11:14:58.834Z,9.02
2023-01-03T11:15:58.985Z,9.09
2023-01-03T11:16:58.912Z,9.09
2023-01-03T11:17:58.943Z,9.05
2023-01-03T11:18:58.817Z,9.10
2023-01-03T11:19:58.791Z,9.13
2023-01-03T11:20:58.747Z,9.16
2023-01-03T11:21:58.719Z,9.20
2023-01-03T11:22:58.789Z,9.23
2023-01-03T11:23:58.739Z,9.23
2023-01-03T11:24:58.647Z,9.25
2023-01-03T11:25:58.719Z,9.28
2023-01-03T11:26:58.636Z,9.34
2023-01-03T11:27:58.600Z,9.39
2023-01-03T11:28:58.608Z,9.42
2023-01-03T11:29:58.621Z,9.45
2023-01-03T11:30:58.595Z,9.50
2023-01-03T11:31:58.626Z,9.56
2023-01-03T11:32:58.798Z,9.57
2023-01-03T11:33:58.739Z,9.61
2023-01-03T11:35:59.804Z,9.68
2023-01-03T11:36:58.599Z,9.68
2023-01-03T11:37:58.497Z,9.76
2023-01-03T11:38:58.768Z,9.79
2023-01-03T11:39:58.696Z,9.85
2023-01-03T11:40:58.516Z,9.89
2023-01-03T11:41:58.507Z,9.94
2023-01-03T11:42:58.583Z,9.96
2023-01-03T11:43:58.459Z,9.97
2023-01-03T11:44:58.454Z,10.03
2023-01-03T11:45:58.464Z,10.06
2023-01-03T11:46:58.531Z,10.12
2023-01-03T11:47:58.425Z,10.12
2023-01-03T11:48:58.451Z,10.15
2023-01-03T11:49:58.351Z,10.18
2023-01-03T11:50:58.368Z,10.21
2023-01-03T11:51:58.329Z,10.25
2023-01-03T11:52:58.273Z,10.26
2023-01-03T11:53:58.625Z,10.30
2023-01-03T11:54:58.530Z,10.33
2023-01-03T11:55:58.316Z,10.37
2023-01-03T11:57:32.324Z,10.39
2023-01-03T11:57:58.255Z,10.39
2023-01-03T11:58:58.269Z,10.43
2023-01-03T11:59:58.268Z,10.52
2023-01-03T12:00:58.328Z,10.56
2023-01-03T12:01:58.363Z,10.60
2023-01-03T12:02:58.287Z,10.68
2023-01-03T12:03:58.341Z,10.73
2023-01-03T12:04:58.118Z,10.78
2023-01-03T12:05:58.217Z,10.86
2023-01-03T12:07:21.398Z,10.88
2023-01-03T12:07:59.097Z,10.92
2023-01-03T12:08:58.068Z,10.98
2023-01-03T12:09:58.132Z,10.99
2023-01-03T12:10:58.134Z,11.01
2023-01-03T12:11:58.117Z,11.03
2023-01-03T12:15:08.427Z,10.96
2023-01-03T12:16:08.816Z,11.02
2023-01-03T12:17:08.369Z,11.09
2023-01-03T12:18:08.367Z,11.11
2023-01-03T12:19:12.208Z,11.14
2023-01-03T12:20:08.605Z,11.10
2023-01-03T12:21:08.318Z,11.10
2023-01-03T12:22:08.285Z,11.11
2023-01-03T12:23:08.320Z,11.16
2023-01-03T12:24:08.255Z,11.19
2023-01-03T12:25:08.268Z,11.17
2023-01-03T12:26:08.338Z,11.20
2023-01-03T12:27:08.343Z,11.25
2023-01-03T12:28:08.234Z,11.29
2023-01-03T12:29:08.432Z,11.32
2023-01-03T12:30:08.256Z,11.38
2023-01-03T12:31:08.259Z,11.32
2023-01-03T12:32:08.282Z,11.31
2023-01-03T12:33:08.200Z,11.32
2023-01-03T12:34:08.142Z,11.32
2023-01-03T12:35:08.146Z,11.34
2023-01-03T12:36:08.092Z,11.34
2023-01-03T12:37:08.077Z,11.34
2023-01-03T12:38:08.065Z,11.32
2023-01-03T12:39:08.060Z,11.29
2023-01-03T12:40:08.356Z,11.29
2023-01-03T12:41:08.047Z,11.29
2023-01-03T12:42:08.129Z,11.31
2023-01-03T12:43:08.038Z,11.34
2023-01-03T12:44:08.019Z,11.39
2023-01-03T12:45:07.964Z,11.43
2023-01-03T12:46:12.675Z,11.44
2023-01-03T12:47:09.259Z,11.46
2023-01-03T12:48:07.968Z,11.47
2023-01-03T12:49:07.951Z,11.47
2023-01-03T12:50:07.933Z,11.46
2023-01-03T12:51:07.858Z,11.46
2023-01-03T12:52:11.580Z,11.44
2023-01-03T12:53:08.884Z,11.46
2023-01-03T12:54:07.828Z,11.47
2023-01-03T12:55:07.900Z,11.46
2023-01-03T12:56:07.836Z,11.44
2023-01-03T12:57:07.838Z,11.46
2023-01-03T12:58:07.935Z,11.44
2023-01-03T12:59:07.965Z,11.47
2023-01-03T13:00:07.758Z,11.46
2023-01-03T13:01:08.031Z,11.47
2023-01-03T13:02:07.835Z,11.50
2023-01-03T13:03:07.943Z,11.49
2023-01-03T13:04:07.871Z,11.52
2023-01-03T13:05:07.678Z,11.52
2023-01-03T13:06:07.683Z,11.47
2023-01-03T13:07:07.832Z,11.46
2023-01-03T13:08:07.718Z,11.41
2023-01-03T13:09:07.703Z,11.38
2023-01-03T13:10:09.264Z,11.35
2023-01-03T13:11:07.602Z,11.34
2023-01-03T13:12:07.620Z,11.34
2023-01-03T13:13:07.919Z,11.35
2023-01-03T13:14:07.591Z,11.38
2023-01-03T13:15:07.620Z,11.38
2023-01-03T13:16:07.646Z,11.39
2023-01-03T13:17:07.605Z,11.43
2023-01-03T13:18:07.498Z,11.41
2023-01-03T13:19:07.518Z,11.41
2023-01-03T13:20:32.478Z,11.36
2023-01-03T13:21:08.488Z,11.32